sensor_id;sensor_type;location;lat;lon;timestamp;P1;durP1;ratioP1;P2;durP2;ratioP2
15516;SDS011;7860;52.030;5.572;2022-07-29T00:03:05;3.05;;;1.67;;
15516;SDS011;7860;52.030;5.572;2022-07-29T00:03:10;4.04;;;1.70;;
15516;SDS011;7860;52.030;5.572;2022-07-29T00:03:10;3.78;;;1.64;;
15516;SDS011;7860;52.030;5.572;2022-07-29T00:03:10;3.70;;;1.63;;
15516;SDS011;7860;52.030;5.572;2022-07-29T00:04:11;5.30;;;1.81;;
15516;SDS011;7860;52.030;5.572;2022-07-29T00:05:11;4.64;;;1.86;;
15516;SDS011;7860;52.030;5.572;2022-07-29T00:06:11;4.47;;;1.83;;
15516;SDS011;7860;52.030;5.572;2022-07-29T00:07:11;3.64;;;1.64;;
15516;SDS011;7860;52.030;5.572;2022-07-29T00:08:12;4.05;;;1.67;;
15516;SDS011;7860;52.030;5.572;2022-07-29T00:09:12;3.95;;;1.78;;
15516;SDS011;7860;52.030;5.572;2022-07-29T00:10:12;4.73;;;1.77;;
15516;SDS011;7860;52.030;5.572;2022-07-29T00:11:12;5.70;;;1.86;;
15516;SDS011;7860;52.030;5.572;2022-07-29T00:12:12;5.43;;;1.98;;
15516;SDS011;7860;52.030;5.572;2022-07-29T00:13:12;6.07;;;2.41;;
15516;SDS011;7860;52.030;5.572;2022-07-29T00:14:12;4.58;;;1.87;;
15516;SDS011;7860;52.030;5.572;2022-07-29T00:15:13;4.13;;;1.88;;
15516;SDS011;7860;52.030;5.572;2022-07-29T00:16:13;5.58;;;2.12;;
15516;SDS011;7860;52.030;5.572;2022-07-29T00:17:13;5.57;;;1.95;;
15516;SDS011;7860;52.030;5.572;2022-07-29T00:18:13;5.03;;;1.80;;
15516;SDS011;7860;52.030;5.572;2022-07-29T00:19:13;4.39;;;1.84;;
15516;SDS011;7860;52.030;5.572;2022-07-29T00:20:13;4.36;;;1.83;;
15516;SDS011;7860;52.030;5.572;2022-07-29T00:21:13;4.61;;;1.78;;
15516;SDS011;7860;52.030;5.572;2022-07-29T00:22:13;4.68;;;1.83;;
15516;SDS011;7860;52.030;5.572;2022-07-29T00:23:13;4.31;;;1.70;;
15516;SDS011;7860;52.030;5.572;2022-07-29T00:24:13;4.69;;;1.84;;
15516;SDS011;7860;52.030;5.572;2022-07-29T00:25:14;5.17;;;1.65;;
15516;SDS011;7860;52.030;5.572;2022-07-29T00:26:14;6.69;;;1.94;;
15516;SDS011;7860;52.030;5.572;2022-07-29T00:27:15;3.31;;;1.77;;
15516;SDS011;7860;52.030;5.572;2022-07-29T00:28:14;3.83;;;1.58;;
15516;SDS011;7860;52.030;5.572;2022-07-29T00:29:15;3.91;;;2.02;;
15516;SDS011;7860;52.030;5.572;2022-07-29T00:30:15;4.79;;;1.96;;
15516;SDS011;7860;52.030;5.572;2022-07-29T00:31:16;3.46;;;1.78;;
15516;SDS011;7860;52.030;5.572;2022-07-29T00:32:16;4.67;;;1.75;;
15516;SDS011;7860;52.030;5.572;2022-07-29T00:33:17;5.24;;;1.80;;
15516;SDS011;7860;52.030;5.572;2022-07-29T00:34:17;4.87;;;1.82;;
15516;SDS011;7860;52.030;5.572;2022-07-29T00:35:17;4.15;;;1.73;;
15516;SDS011;7860;52.030;5.572;2022-07-29T00:36:17;3.58;;;1.75;;
15516;SDS011;7860;52.030;5.572;2022-07-29T00:37:17;4.60;;;1.86;;
15516;SDS011;7860;52.030;5.572;2022-07-29T00:38:19;4.93;;;1.88;;
15516;SDS011;7860;52.030;5.572;2022-07-29T00:39:17;4.26;;;1.89;;
15516;SDS011;7860;52.030;5.572;2022-07-29T00:40:17;5.38;;;1.73;;
15516;SDS011;7860;52.030;5.572;2022-07-29T00:41:18;4.99;;;1.77;;
15516;SDS011;7860;52.030;5.572;2022-07-29T00:42:18;4.68;;;1.86;;
15516;SDS011;7860;52.030;5.572;2022-07-29T00:43:18;5.14;;;1.84;;
15516;SDS011;7860;52.030;5.572;2022-07-29T00:44:18;4.84;;;1.86;;
15516;SDS011;7860;52.030;5.572;2022-07-29T00:45:18;6.24;;;1.75;;
15516;SDS011;7860;52.030;5.572;2022-07-29T00:46:18;4.17;;;1.79;;
15516;SDS011;7860;52.030;5.572;2022-07-29T00:47:18;3.59;;;1.73;;
15516;SDS011;7860;52.030;5.572;2022-07-29T00:48:18;4.47;;;1.95;;
15516;SDS011;7860;52.030;5.572;2022-07-29T00:49:19;3.14;;;1.63;;
15516;SDS011;7860;52.030;5.572;2022-07-29T00:50:19;3.13;;;1.70;;
15516;SDS011;7860;52.030;5.572;2022-07-29T00:51:19;3.86;;;1.74;;
15516;SDS011;7860;52.030;5.572;2022-07-29T00:52:19;4.10;;;1.81;;
15516;SDS011;7860;52.030;5.572;2022-07-29T00:53:19;4.62;;;1.96;;
15516;SDS011;7860;52.030;5.572;2022-07-29T00:54:19;6.30;;;1.97;;
15516;SDS011;7860;52.030;5.572;2022-07-29T00:55:19;4.82;;;2.11;;
15516;SDS011;7860;52.030;5.572;2022-07-29T00:56:19;6.05;;;1.91;;
15516;SDS011;7860;52.030;5.572;2022-07-29T00:57:20;4.08;;;1.79;;
15516;SDS011;7860;52.030;5.572;2022-07-29T00:58:20;5.77;;;1.92;;
15516;SDS011;7860;52.030;5.572;2022-07-29T00:59:20;5.25;;;1.75;;
15516;SDS011;7860;52.030;5.572;2022-07-29T01:00:21;5.23;;;1.85;;
15516;SDS011;7860;52.030;5.572;2022-07-29T01:01:20;4.84;;;1.86;;
15516;SDS011;7860;52.030;5.572;2022-07-29T01:02:20;4.36;;;1.73;;
15516;SDS011;7860;52.030;5.572;2022-07-29T01:03:20;4.73;;;2.09;;
15516;SDS011;7860;52.030;5.572;2022-07-29T01:04:20;5.85;;;2.05;;
15516;SDS011;7860;52.030;5.572;2022-07-29T01:05:20;5.83;;;1.82;;
15516;SDS011;7860;52.030;5.572;2022-07-29T01:06:21;5.06;;;2.12;;
15516;SDS011;7860;52.030;5.572;2022-07-29T01:07:21;5.45;;;2.04;;
15516;SDS011;7860;52.030;5.572;2022-07-29T01:08:21;5.95;;;2.11;;
15516;SDS011;7860;52.030;5.572;2022-07-29T01:09:21;6.00;;;2.01;;
15516;SDS011;7860;52.030;5.572;2022-07-29T01:10:21;5.70;;;2.00;;
15516;SDS011;7860;52.030;5.572;2022-07-29T01:11:22;4.93;;;1.79;;
15516;SDS011;7860;52.030;5.572;2022-07-29T01:12:22;7.18;;;1.92;;
15516;SDS011;7860;52.030;5.572;2022-07-29T01:13:22;3.85;;;1.81;;
15516;SDS011;7860;52.030;5.572;2022-07-29T01:14:22;5.72;;;2.13;;
15516;SDS011;7860;52.030;5.572;2022-07-29T01:15:22;5.83;;;2.10;;
15516;SDS011;7860;52.030;5.572;2022-07-29T01:16:24;5.71;;;1.97;;
15516;SDS011;7860;52.030;5.572;2022-07-29T01:17:24;4.51;;;2.09;;
15516;SDS011;7860;52.030;5.572;2022-07-29T01:18:24;6.01;;;2.05;;
15516;SDS011;7860;52.030;5.572;2022-07-29T01:19:33;6.25;;;2.16;;
15516;SDS011;7860;52.030;5.572;2022-07-29T01:20:25;5.82;;;2.01;;
15516;SDS011;7860;52.030;5.572;2022-07-29T01:21:27;5.32;;;2.08;;
15516;SDS011;7860;52.030;5.572;2022-07-29T01:22:25;6.18;;;2.24;;
15516;SDS011;7860;52.030;5.572;2022-07-29T01:23:30;5.25;;;2.33;;
15516;SDS011;7860;52.030;5.572;2022-07-29T01:24:30;6.43;;;2.17;;
15516;SDS011;7860;52.030;5.572;2022-07-29T01:25:30;7.05;;;2.10;;
15516;SDS011;7860;52.030;5.572;2022-07-29T01:26:31;5.89;;;1.95;;
15516;SDS011;7860;52.030;5.572;2022-07-29T01:27:32;5.76;;;2.13;;
15516;SDS011;7860;52.030;5.572;2022-07-29T01:28:33;4.13;;;1.89;;
15516;SDS011;7860;52.030;5.572;2022-07-29T01:29:27;4.87;;;1.99;;
15516;SDS011;7860;52.030;5.572;2022-07-29T01:30:27;5.15;;;2.03;;
15516;SDS011;7860;52.030;5.572;2022-07-29T01:31:28;4.32;;;2.07;;
15516;SDS011;7860;52.030;5.572;2022-07-29T01:32:27;5.54;;;2.22;;
15516;SDS011;7860;52.030;5.572;2022-07-29T01:33:27;3.93;;;2.15;;
15516;SDS011;7860;52.030;5.572;2022-07-29T01:34:29;5.22;;;2.21;;
15516;SDS011;7860;52.030;5.572;2022-07-29T01:35:28;5.29;;;2.07;;
15516;SDS011;7860;52.030;5.572;2022-07-29T01:36:29;7.58;;;2.08;;
15516;SDS011;7860;52.030;5.572;2022-07-29T01:37:28;7.57;;;2.06;;
15516;SDS011;7860;52.030;5.572;2022-07-29T01:38:28;5.66;;;2.10;;
15516;SDS011;7860;52.030;5.572;2022-07-29T01:39:30;5.75;;;2.26;;
15516;SDS011;7860;52.030;5.572;2022-07-29T01:40:29;6.79;;;2.03;;
15516;SDS011;7860;52.030;5.572;2022-07-29T01:41:28;6.87;;;2.08;;
15516;SDS011;7860;52.030;5.572;2022-07-29T01:42:30;7.00;;;2.25;;
15516;SDS011;7860;52.030;5.572;2022-07-29T01:43:31;7.18;;;2.07;;
15516;SDS011;7860;52.030;5.572;2022-07-29T01:44:30;5.84;;;2.00;;
15516;SDS011;7860;52.030;5.572;2022-07-29T01:45:30;5.85;;;1.84;;
15516;SDS011;7860;52.030;5.572;2022-07-29T01:46:30;5.17;;;2.03;;
15516;SDS011;7860;52.030;5.572;2022-07-29T01:47:31;5.48;;;2.07;;
15516;SDS011;7860;52.030;5.572;2022-07-29T01:48:31;6.00;;;2.12;;
15516;SDS011;7860;52.030;5.572;2022-07-29T01:49:30;4.40;;;1.93;;
15516;SDS011;7860;52.030;5.572;2022-07-29T01:50:30;6.20;;;2.09;;
15516;SDS011;7860;52.030;5.572;2022-07-29T01:51:29;4.86;;;2.14;;
15516;SDS011;7860;52.030;5.572;2022-07-29T01:52:31;4.29;;;1.87;;
15516;SDS011;7860;52.030;5.572;2022-07-29T01:53:29;4.61;;;2.00;;
15516;SDS011;7860;52.030;5.572;2022-07-29T01:54:30;5.83;;;2.10;;
15516;SDS011;7860;52.030;5.572;2022-07-29T01:55:29;4.74;;;1.96;;
15516;SDS011;7860;52.030;5.572;2022-07-29T01:56:28;5.62;;;2.02;;
15516;SDS011;7860;52.030;5.572;2022-07-29T01:57:29;6.11;;;1.98;;
15516;SDS011;7860;52.030;5.572;2022-07-29T01:58:29;5.64;;;1.87;;
15516;SDS011;7860;52.030;5.572;2022-07-29T01:59:29;4.82;;;1.83;;
15516;SDS011;7860;52.030;5.572;2022-07-29T02:00:29;4.81;;;2.09;;
15516;SDS011;7860;52.030;5.572;2022-07-29T02:01:30;5.70;;;2.13;;
15516;SDS011;7860;52.030;5.572;2022-07-29T02:02:30;4.79;;;1.80;;
15516;SDS011;7860;52.030;5.572;2022-07-29T02:03:30;5.35;;;2.20;;
15516;SDS011;7860;52.030;5.572;2022-07-29T02:04:30;4.80;;;2.16;;
15516;SDS011;7860;52.030;5.572;2022-07-29T02:05:30;6.05;;;2.08;;
15516;SDS011;7860;52.030;5.572;2022-07-29T02:06:30;5.47;;;2.19;;
15516;SDS011;7860;52.030;5.572;2022-07-29T02:07:30;4.54;;;2.06;;
15516;SDS011;7860;52.030;5.572;2022-07-29T02:08:30;4.35;;;2.06;;
15516;SDS011;7860;52.030;5.572;2022-07-29T02:09:30;4.66;;;2.13;;
15516;SDS011;7860;52.030;5.572;2022-07-29T02:10:31;6.84;;;2.25;;
15516;SDS011;7860;52.030;5.572;2022-07-29T02:11:30;4.00;;;1.93;;
15516;SDS011;7860;52.030;5.572;2022-07-29T02:12:30;5.18;;;2.22;;
15516;SDS011;7860;52.030;5.572;2022-07-29T02:13:30;4.98;;;2.24;;
15516;SDS011;7860;52.030;5.572;2022-07-29T02:14:31;5.64;;;2.06;;
15516;SDS011;7860;52.030;5.572;2022-07-29T02:15:31;5.83;;;2.02;;
15516;SDS011;7860;52.030;5.572;2022-07-29T02:16:30;5.75;;;2.13;;
15516;SDS011;7860;52.030;5.572;2022-07-29T02:17:33;5.68;;;2.11;;
15516;SDS011;7860;52.030;5.572;2022-07-29T02:18:30;6.91;;;2.12;;
15516;SDS011;7860;52.030;5.572;2022-07-29T02:19:32;5.66;;;2.46;;
15516;SDS011;7860;52.030;5.572;2022-07-29T02:20:31;4.11;;;2.00;;
15516;SDS011;7860;52.030;5.572;2022-07-29T02:21:31;5.14;;;2.08;;
15516;SDS011;7860;52.030;5.572;2022-07-29T02:22:33;5.51;;;2.16;;
15516;SDS011;7860;52.030;5.572;2022-07-29T02:23:32;5.25;;;2.25;;
15516;SDS011;7860;52.030;5.572;2022-07-29T02:24:31;5.53;;;2.14;;
15516;SDS011;7860;52.030;5.572;2022-07-29T02:25:31;6.11;;;2.34;;
15516;SDS011;7860;52.030;5.572;2022-07-29T02:26:32;5.16;;;2.24;;
15516;SDS011;7860;52.030;5.572;2022-07-29T02:27:32;5.14;;;2.34;;
15516;SDS011;7860;52.030;5.572;2022-07-29T02:28:32;4.86;;;2.25;;
15516;SDS011;7860;52.030;5.572;2022-07-29T02:29:33;4.56;;;2.22;;
15516;SDS011;7860;52.030;5.572;2022-07-29T02:30:33;5.35;;;2.34;;
15516;SDS011;7860;52.030;5.572;2022-07-29T02:31:33;6.79;;;2.36;;
15516;SDS011;7860;52.030;5.572;2022-07-29T02:32:34;4.91;;;2.34;;
15516;SDS011;7860;52.030;5.572;2022-07-29T02:33:34;6.23;;;2.31;;
15516;SDS011;7860;52.030;5.572;2022-07-29T02:34:34;6.48;;;2.48;;
15516;SDS011;7860;52.030;5.572;2022-07-29T02:35:34;5.21;;;2.08;;
15516;SDS011;7860;52.030;5.572;2022-07-29T02:36:34;5.58;;;2.33;;
15516;SDS011;7860;52.030;5.572;2022-07-29T02:37:34;6.60;;;2.22;;
15516;SDS011;7860;52.030;5.572;2022-07-29T02:38:34;5.37;;;2.45;;
15516;SDS011;7860;52.030;5.572;2022-07-29T02:39:35;5.31;;;2.07;;
15516;SDS011;7860;52.030;5.572;2022-07-29T02:40:38;5.42;;;2.29;;
15516;SDS011;7860;52.030;5.572;2022-07-29T02:41:37;5.55;;;2.26;;
15516;SDS011;7860;52.030;5.572;2022-07-29T02:42:35;5.93;;;2.47;;
15516;SDS011;7860;52.030;5.572;2022-07-29T02:43:35;6.27;;;2.31;;
15516;SDS011;7860;52.030;5.572;2022-07-29T02:44:35;5.35;;;2.30;;
15516;SDS011;7860;52.030;5.572;2022-07-29T02:45:35;6.97;;;2.36;;
15516;SDS011;7860;52.030;5.572;2022-07-29T02:46:36;5.90;;;2.34;;
15516;SDS011;7860;52.030;5.572;2022-07-29T02:47:38;5.59;;;2.12;;
15516;SDS011;7860;52.030;5.572;2022-07-29T02:48:37;6.02;;;2.32;;
15516;SDS011;7860;52.030;5.572;2022-07-29T02:49:37;5.33;;;2.26;;
15516;SDS011;7860;52.030;5.572;2022-07-29T02:50:37;5.44;;;2.32;;
15516;SDS011;7860;52.030;5.572;2022-07-29T02:51:40;6.27;;;2.44;;
15516;SDS011;7860;52.030;5.572;2022-07-29T02:52:37;8.00;;;2.60;;
15516;SDS011;7860;52.030;5.572;2022-07-29T02:53:37;6.05;;;2.26;;
15516;SDS011;7860;52.030;5.572;2022-07-29T02:54:38;6.04;;;2.38;;
15516;SDS011;7860;52.030;5.572;2022-07-29T02:55:37;5.29;;;2.26;;
15516;SDS011;7860;52.030;5.572;2022-07-29T02:56:37;5.26;;;2.33;;
15516;SDS011;7860;52.030;5.572;2022-07-29T02:57:39;7.34;;;2.40;;
15516;SDS011;7860;52.030;5.572;2022-07-29T02:58:38;5.28;;;2.31;;
15516;SDS011;7860;52.030;5.572;2022-07-29T02:59:37;6.54;;;2.47;;
15516;SDS011;7860;52.030;5.572;2022-07-29T03:00:37;4.96;;;2.20;;
15516;SDS011;7860;52.030;5.572;2022-07-29T03:01:38;5.13;;;2.08;;
15516;SDS011;7860;52.030;5.572;2022-07-29T03:02:38;5.77;;;2.35;;
15516;SDS011;7860;52.030;5.572;2022-07-29T03:03:37;4.90;;;2.38;;
15516;SDS011;7860;52.030;5.572;2022-07-29T03:04:37;5.60;;;2.47;;
15516;SDS011;7860;52.030;5.572;2022-07-29T03:05:37;5.88;;;2.34;;
15516;SDS011;7860;52.030;5.572;2022-07-29T03:06:37;6.50;;;2.60;;
15516;SDS011;7860;52.030;5.572;2022-07-29T03:07:38;4.73;;;2.42;;
15516;SDS011;7860;52.030;5.572;2022-07-29T03:08:38;8.64;;;2.26;;
15516;SDS011;7860;52.030;5.572;2022-07-29T03:09:38;6.43;;;2.59;;
15516;SDS011;7860;52.030;5.572;2022-07-29T03:10:39;7.47;;;2.49;;
15516;SDS011;7860;52.030;5.572;2022-07-29T03:11:38;6.18;;;2.42;;
15516;SDS011;7860;52.030;5.572;2022-07-29T03:12:38;5.40;;;2.50;;
15516;SDS011;7860;52.030;5.572;2022-07-29T03:13:38;4.95;;;2.46;;
15516;SDS011;7860;52.030;5.572;2022-07-29T03:14:38;7.36;;;2.52;;
15516;SDS011;7860;52.030;5.572;2022-07-29T03:15:39;5.70;;;2.56;;
15516;SDS011;7860;52.030;5.572;2022-07-29T03:16:39;6.91;;;2.52;;
15516;SDS011;7860;52.030;5.572;2022-07-29T03:17:39;6.54;;;2.58;;
15516;SDS011;7860;52.030;5.572;2022-07-29T03:18:39;5.04;;;2.47;;
15516;SDS011;7860;52.030;5.572;2022-07-29T03:19:39;5.59;;;2.58;;
15516;SDS011;7860;52.030;5.572;2022-07-29T03:20:40;5.43;;;2.42;;
15516;SDS011;7860;52.030;5.572;2022-07-29T03:21:40;4.81;;;2.25;;
15516;SDS011;7860;52.030;5.572;2022-07-29T03:22:40;5.47;;;2.52;;
15516;SDS011;7860;52.030;5.572;2022-07-29T03:23:43;6.04;;;2.72;;
15516;SDS011;7860;52.030;5.572;2022-07-29T03:24:40;5.61;;;2.55;;
15516;SDS011;7860;52.030;5.572;2022-07-29T03:25:40;6.24;;;2.55;;
15516;SDS011;7860;52.030;5.572;2022-07-29T03:26:40;5.37;;;2.72;;
15516;SDS011;7860;52.030;5.572;2022-07-29T03:27:40;5.79;;;2.54;;
15516;SDS011;7860;52.030;5.572;2022-07-29T03:28:40;5.75;;;2.73;;
15516;SDS011;7860;52.030;5.572;2022-07-29T03:29:40;5.05;;;2.42;;
15516;SDS011;7860;52.030;5.572;2022-07-29T03:30:40;7.70;;;2.84;;
15516;SDS011;7860;52.030;5.572;2022-07-29T03:31:40;7.36;;;2.74;;
15516;SDS011;7860;52.030;5.572;2022-07-29T03:32:40;6.16;;;2.63;;
15516;SDS011;7860;52.030;5.572;2022-07-29T03:33:40;6.87;;;2.60;;
15516;SDS011;7860;52.030;5.572;2022-07-29T03:34:40;6.18;;;2.68;;
15516;SDS011;7860;52.030;5.572;2022-07-29T03:35:40;6.06;;;2.74;;
15516;SDS011;7860;52.030;5.572;2022-07-29T03:36:40;5.69;;;2.31;;
15516;SDS011;7860;52.030;5.572;2022-07-29T03:37:40;6.05;;;2.67;;
15516;SDS011;7860;52.030;5.572;2022-07-29T03:38:40;5.57;;;2.64;;
15516;SDS011;7860;52.030;5.572;2022-07-29T03:39:40;7.29;;;2.55;;
15516;SDS011;7860;52.030;5.572;2022-07-29T03:40:42;6.59;;;2.58;;
15516;SDS011;7860;52.030;5.572;2022-07-29T03:41:41;7.02;;;2.56;;
15516;SDS011;7860;52.030;5.572;2022-07-29T03:42:41;7.30;;;2.75;;
15516;SDS011;7860;52.030;5.572;2022-07-29T03:43:41;6.52;;;2.60;;
15516;SDS011;7860;52.030;5.572;2022-07-29T03:44:42;7.22;;;2.55;;
15516;SDS011;7860;52.030;5.572;2022-07-29T03:45:42;8.96;;;2.67;;
15516;SDS011;7860;52.030;5.572;2022-07-29T03:46:43;6.64;;;2.68;;
15516;SDS011;7860;52.030;5.572;2022-07-29T03:47:44;7.01;;;2.65;;
15516;SDS011;7860;52.030;5.572;2022-07-29T03:48:44;5.84;;;2.41;;
15516;SDS011;7860;52.030;5.572;2022-07-29T03:49:42;4.45;;;2.18;;
15516;SDS011;7860;52.030;5.572;2022-07-29T03:50:43;7.29;;;2.55;;
15516;SDS011;7860;52.030;5.572;2022-07-29T03:51:43;5.95;;;2.55;;
15516;SDS011;7860;52.030;5.572;2022-07-29T03:52:43;6.55;;;2.66;;
15516;SDS011;7860;52.030;5.572;2022-07-29T03:53:43;5.37;;;2.41;;
15516;SDS011;7860;52.030;5.572;2022-07-29T03:54:43;6.20;;;2.42;;
15516;SDS011;7860;52.030;5.572;2022-07-29T03:55:45;6.34;;;2.43;;
15516;SDS011;7860;52.030;5.572;2022-07-29T03:56:45;5.13;;;2.46;;
15516;SDS011;7860;52.030;5.572;2022-07-29T03:57:44;5.28;;;2.35;;
15516;SDS011;7860;52.030;5.572;2022-07-29T03:58:44;5.13;;;2.36;;
15516;SDS011;7860;52.030;5.572;2022-07-29T03:59:45;7.30;;;2.64;;
15516;SDS011;7860;52.030;5.572;2022-07-29T04:00:45;6.53;;;2.55;;
15516;SDS011;7860;52.030;5.572;2022-07-29T04:01:45;8.01;;;2.55;;
15516;SDS011;7860;52.030;5.572;2022-07-29T04:02:45;6.46;;;2.64;;
15516;SDS011;7860;52.030;5.572;2022-07-29T04:03:45;6.50;;;2.68;;
15516;SDS011;7860;52.030;5.572;2022-07-29T04:04:46;5.40;;;2.40;;
15516;SDS011;7860;52.030;5.572;2022-07-29T04:05:56;4.99;;;2.44;;
15516;SDS011;7860;52.030;5.572;2022-07-29T04:06:46;7.23;;;2.46;;
15516;SDS011;7860;52.030;5.572;2022-07-29T04:07:47;4.75;;;2.15;;
15516;SDS011;7860;52.030;5.572;2022-07-29T04:08:47;5.88;;;2.27;;
15516;SDS011;7860;52.030;5.572;2022-07-29T04:09:47;5.46;;;2.27;;
15516;SDS011;7860;52.030;5.572;2022-07-29T04:10:47;4.76;;;2.34;;
15516;SDS011;7860;52.030;5.572;2022-07-29T04:11:48;5.64;;;2.44;;
15516;SDS011;7860;52.030;5.572;2022-07-29T04:12:48;5.95;;;2.43;;
15516;SDS011;7860;52.030;5.572;2022-07-29T04:13:48;5.03;;;2.34;;
15516;SDS011;7860;52.030;5.572;2022-07-29T04:14:48;5.30;;;2.45;;
15516;SDS011;7860;52.030;5.572;2022-07-29T04:15:48;6.27;;;2.61;;
15516;SDS011;7860;52.030;5.572;2022-07-29T04:16:48;6.36;;;2.35;;
15516;SDS011;7860;52.030;5.572;2022-07-29T04:17:48;6.49;;;2.50;;
15516;SDS011;7860;52.030;5.572;2022-07-29T04:18:49;6.25;;;2.74;;
15516;SDS011;7860;52.030;5.572;2022-07-29T04:19:49;5.43;;;2.40;;
15516;SDS011;7860;52.030;5.572;2022-07-29T04:20:50;6.05;;;2.62;;
15516;SDS011;7860;52.030;5.572;2022-07-29T04:21:50;6.68;;;2.69;;
15516;SDS011;7860;52.030;5.572;2022-07-29T04:22:50;5.78;;;2.70;;
15516;SDS011;7860;52.030;5.572;2022-07-29T04:23:50;6.80;;;2.52;;
15516;SDS011;7860;52.030;5.572;2022-07-29T04:24:50;6.18;;;2.71;;
15516;SDS011;7860;52.030;5.572;2022-07-29T04:25:50;6.34;;;2.70;;
15516;SDS011;7860;52.030;5.572;2022-07-29T04:26:51;5.42;;;2.74;;
15516;SDS011;7860;52.030;5.572;2022-07-29T04:27:50;8.62;;;2.75;;
15516;SDS011;7860;52.030;5.572;2022-07-29T04:28:50;6.96;;;2.73;;
15516;SDS011;7860;52.030;5.572;2022-07-29T04:29:50;8.37;;;2.62;;
15516;SDS011;7860;52.030;5.572;2022-07-29T04:30:51;7.62;;;2.68;;
15516;SDS011;7860;52.030;5.572;2022-07-29T04:31:51;7.17;;;3.22;;
15516;SDS011;7860;52.030;5.572;2022-07-29T04:32:51;7.57;;;3.03;;
15516;SDS011;7860;52.030;5.572;2022-07-29T04:33:51;4.88;;;2.35;;
15516;SDS011;7860;52.030;5.572;2022-07-29T04:34:51;6.15;;;2.52;;
15516;SDS011;7860;52.030;5.572;2022-07-29T04:35:51;7.39;;;2.62;;
15516;SDS011;7860;52.030;5.572;2022-07-29T04:36:51;7.35;;;2.68;;
15516;SDS011;7860;52.030;5.572;2022-07-29T04:37:51;6.40;;;2.93;;
15516;SDS011;7860;52.030;5.572;2022-07-29T04:38:51;6.66;;;3.05;;
15516;SDS011;7860;52.030;5.572;2022-07-29T04:39:51;6.29;;;2.79;;
15516;SDS011;7860;52.030;5.572;2022-07-29T04:40:51;6.41;;;2.79;;
15516;SDS011;7860;52.030;5.572;2022-07-29T04:41:51;7.16;;;2.83;;
15516;SDS011;7860;52.030;5.572;2022-07-29T04:42:51;6.18;;;2.71;;
15516;SDS011;7860;52.030;5.572;2022-07-29T04:43:51;6.39;;;2.73;;
15516;SDS011;7860;52.030;5.572;2022-07-29T04:44:51;6.31;;;2.80;;
15516;SDS011;7860;52.030;5.572;2022-07-29T04:45:51;6.52;;;2.93;;
15516;SDS011;7860;52.030;5.572;2022-07-29T04:46:52;8.41;;;2.80;;
15516;SDS011;7860;52.030;5.572;2022-07-29T04:47:52;5.81;;;2.52;;
15516;SDS011;7860;52.030;5.572;2022-07-29T04:48:52;5.89;;;2.74;;
15516;SDS011;7860;52.030;5.572;2022-07-29T04:49:52;8.18;;;2.90;;
15516;SDS011;7860;52.030;5.572;2022-07-29T04:50:52;8.34;;;2.76;;
15516;SDS011;7860;52.030;5.572;2022-07-29T04:51:52;8.08;;;2.81;;
15516;SDS011;7860;52.030;5.572;2022-07-29T04:52:52;7.09;;;3.10;;
15516;SDS011;7860;52.030;5.572;2022-07-29T04:53:52;5.13;;;2.62;;
15516;SDS011;7860;52.030;5.572;2022-07-29T04:54:53;7.97;;;2.85;;
15516;SDS011;7860;52.030;5.572;2022-07-29T04:55:53;11.85;;;2.83;;
15516;SDS011;7860;52.030;5.572;2022-07-29T04:56:53;7.42;;;2.73;;
15516;SDS011;7860;52.030;5.572;2022-07-29T04:57:53;10.00;;;2.75;;
15516;SDS011;7860;52.030;5.572;2022-07-29T04:58:53;6.80;;;2.79;;
15516;SDS011;7860;52.030;5.572;2022-07-29T04:59:53;7.33;;;2.83;;
15516;SDS011;7860;52.030;5.572;2022-07-29T05:00:53;7.77;;;2.71;;
15516;SDS011;7860;52.030;5.572;2022-07-29T05:01:54;5.83;;;2.73;;
15516;SDS011;7860;52.030;5.572;2022-07-29T05:02:54;6.81;;;2.82;;
15516;SDS011;7860;52.030;5.572;2022-07-29T05:03:54;7.71;;;2.75;;
15516;SDS011;7860;52.030;5.572;2022-07-29T05:04:54;7.62;;;2.65;;
15516;SDS011;7860;52.030;5.572;2022-07-29T05:05:54;6.21;;;2.81;;
15516;SDS011;7860;52.030;5.572;2022-07-29T05:06:54;7.47;;;2.63;;
15516;SDS011;7860;52.030;5.572;2022-07-29T05:07:54;6.42;;;2.70;;
15516;SDS011;7860;52.030;5.572;2022-07-29T05:08:54;6.40;;;2.51;;
15516;SDS011;7860;52.030;5.572;2022-07-29T05:09:54;7.46;;;2.42;;
15516;SDS011;7860;52.030;5.572;2022-07-29T05:10:54;6.53;;;2.61;;
15516;SDS011;7860;52.030;5.572;2022-07-29T05:11:54;5.66;;;2.34;;
15516;SDS011;7860;52.030;5.572;2022-07-29T05:12:54;8.09;;;2.62;;
15516;SDS011;7860;52.030;5.572;2022-07-29T05:13:54;6.20;;;2.41;;
15516;SDS011;7860;52.030;5.572;2022-07-29T05:14:54;6.75;;;2.64;;
15516;SDS011;7860;52.030;5.572;2022-07-29T05:15:54;6.89;;;2.77;;
15516;SDS011;7860;52.030;5.572;2022-07-29T05:16:54;5.91;;;2.66;;
15516;SDS011;7860;52.030;5.572;2022-07-29T05:17:54;6.44;;;2.64;;
15516;SDS011;7860;52.030;5.572;2022-07-29T05:18:54;6.89;;;2.52;;
15516;SDS011;7860;52.030;5.572;2022-07-29T05:19:54;5.36;;;2.55;;
15516;SDS011;7860;52.030;5.572;2022-07-29T05:20:54;7.06;;;2.78;;
15516;SDS011;7860;52.030;5.572;2022-07-29T05:21:54;6.41;;;2.74;;
15516;SDS011;7860;52.030;5.572;2022-07-29T05:22:54;6.93;;;2.79;;
15516;SDS011;7860;52.030;5.572;2022-07-29T05:23:54;7.11;;;2.67;;
15516;SDS011;7860;52.030;5.572;2022-07-29T05:24:54;7.15;;;2.94;;
15516;SDS011;7860;52.030;5.572;2022-07-29T05:25:55;6.19;;;2.50;;
15516;SDS011;7860;52.030;5.572;2022-07-29T05:26:55;6.24;;;2.72;;
15516;SDS011;7860;52.030;5.572;2022-07-29T05:27:56;6.87;;;2.66;;
15516;SDS011;7860;52.030;5.572;2022-07-29T05:28:56;5.20;;;2.52;;
15516;SDS011;7860;52.030;5.572;2022-07-29T05:29:56;6.52;;;2.60;;
15516;SDS011;7860;52.030;5.572;2022-07-29T05:30:56;7.48;;;2.71;;
15516;SDS011;7860;52.030;5.572;2022-07-29T05:31:56;5.85;;;2.77;;
15516;SDS011;7860;52.030;5.572;2022-07-29T05:32:57;9.36;;;2.90;;
15516;SDS011;7860;52.030;5.572;2022-07-29T05:33:57;5.93;;;2.73;;
15516;SDS011;7860;52.030;5.572;2022-07-29T05:34:57;6.64;;;2.68;;
15516;SDS011;7860;52.030;5.572;2022-07-29T05:35:57;6.60;;;2.57;;
15516;SDS011;7860;52.030;5.572;2022-07-29T05:36:57;7.69;;;2.95;;
15516;SDS011;7860;52.030;5.572;2022-07-29T05:37:57;5.49;;;2.35;;
15516;SDS011;7860;52.030;5.572;2022-07-29T05:38:57;8.68;;;2.71;;
15516;SDS011;7860;52.030;5.572;2022-07-29T05:39:57;5.91;;;2.61;;
15516;SDS011;7860;52.030;5.572;2022-07-29T05:40:57;6.17;;;2.61;;
15516;SDS011;7860;52.030;5.572;2022-07-29T05:41:57;8.23;;;2.77;;
15516;SDS011;7860;52.030;5.572;2022-07-29T05:42:57;6.31;;;2.63;;
15516;SDS011;7860;52.030;5.572;2022-07-29T05:43:57;7.54;;;2.72;;
15516;SDS011;7860;52.030;5.572;2022-07-29T05:44:57;5.67;;;2.51;;
15516;SDS011;7860;52.030;5.572;2022-07-29T05:45:57;7.89;;;2.76;;
15516;SDS011;7860;52.030;5.572;2022-07-29T05:46:57;7.13;;;2.68;;
15516;SDS011;7860;52.030;5.572;2022-07-29T05:47:58;6.20;;;2.74;;
15516;SDS011;7860;52.030;5.572;2022-07-29T05:48:57;7.21;;;2.89;;
15516;SDS011;7860;52.030;5.572;2022-07-29T05:49:57;5.76;;;2.95;;
15516;SDS011;7860;52.030;5.572;2022-07-29T05:50:57;8.11;;;2.91;;
15516;SDS011;7860;52.030;5.572;2022-07-29T05:51:57;6.34;;;3.00;;
15516;SDS011;7860;52.030;5.572;2022-07-29T05:52:57;7.35;;;3.07;;
15516;SDS011;7860;52.030;5.572;2022-07-29T05:53:57;8.06;;;2.93;;
15516;SDS011;7860;52.030;5.572;2022-07-29T05:54:57;7.88;;;2.94;;
15516;SDS011;7860;52.030;5.572;2022-07-29T05:55:57;5.47;;;2.81;;
15516;SDS011;7860;52.030;5.572;2022-07-29T05:56:58;7.32;;;2.81;;
15516;SDS011;7860;52.030;5.572;2022-07-29T05:57:58;7.33;;;3.05;;
15516;SDS011;7860;52.030;5.572;2022-07-29T05:58:59;6.96;;;2.71;;
15516;SDS011;7860;52.030;5.572;2022-07-29T05:59:59;6.92;;;2.75;;
15516;SDS011;7860;52.030;5.572;2022-07-29T06:00:59;6.28;;;2.68;;
15516;SDS011;7860;52.030;5.572;2022-07-29T06:01:59;5.60;;;2.53;;
15516;SDS011;7860;52.030;5.572;2022-07-29T06:02:59;6.36;;;2.57;;
15516;SDS011;7860;52.030;5.572;2022-07-29T06:03:59;8.46;;;2.69;;
15516;SDS011;7860;52.030;5.572;2022-07-29T06:05:00;6.85;;;2.55;;
15516;SDS011;7860;52.030;5.572;2022-07-29T06:06:00;6.00;;;2.48;;
15516;SDS011;7860;52.030;5.572;2022-07-29T06:07:00;5.60;;;2.69;;